Time;durP1;ratioP1;P1;durP2;ratioP2;P2;SDS_P1;SDS_P2;PMS_P1;PMS_P2;Temp;Humidity;BMP_temperature;BMP_pressure;BME280_temperature;BME280_humidity;BME280_pressure;Samples;Min_cycle;Max_cycle;Signal;HPM_P1;HPM_P2
2022/11/24 05:55:42;;;;;;;5.93;4.72;;;;;;;4.64;80.80;98799.63;5091876;27;20394;-71
2022/11/24 05:58:11;;;;;;;4.22;3.83;;;;;;;4.71;80.37;98803.88;5091062;28;20040;-72
2022/11/24 06:00:41;;;;;;;3.00;2.80;;;;;;;4.78;80.57;98810.69;5091071;28;20094;-73
2022/11/24 06:03:11;;;;;;;1.33;1.27;;;;;;;4.81;80.25;98812.41;5090870;28;20036;-72
2022/11/24 06:05:40;;;;;;;2.78;1.92;;;;;;;4.79;80.10;98814.91;5091009;28;20048;-71
2022/11/24 06:08:09;;;;;;;2.72;2.47;;;;;;;4.81;79.71;98823.34;5090151;28;20051;-71
2022/11/24 06:10:39;;;;;;;5.03;4.63;;;;;;;4.82;80.04;98830.13;5090754;28;20048;-72
2022/11/24 06:13:08;;;;;;;2.92;2.72;;;;;;;4.84;80.00;98833.50;5090901;28;20044;-72
2022/11/24 06:15:37;;;;;;;3.40;3.10;;;;;;;4.83;79.69;98831.78;5090459;28;20135;-71
2022/11/24 06:18:06;;;;;;;3.58;3.25;;;;;;;4.85;79.85;98837.69;5090487;28;20043;-72
2022/11/24 06:20:35;;;;;;;7.43;6.68;;;;;;;4.89;79.95;98847.03;5090599;28;20506;-72
2022/11/24 06:23:06;;;;;;;1.67;1.58;;;;;;;4.92;79.97;98852.09;5090969;28;20048;-72
2022/11/24 06:25:35;;;;;;;14.23;4.30;;;;;;;4.95;79.71;98857.16;5090348;28;20036;-71
2022/11/24 06:28:06;;;;;;;7.35;3.60;;;;;;;4.95;79.83;98858.84;5090782;28;20131;-72
2022/11/24 06:30:35;;;;;;;3.20;2.45;;;;;;;4.96;79.73;98863.94;5090422;28;20056;-72
2022/11/24 06:33:03;;;;;;;3.22;3.03;;;;;;;4.98;79.85;98867.31;5090346;28;20040;-71
2022/11/24 06:35:32;;;;;;;5.40;4.05;;;;;;;5.00;79.75;98864.78;5090291;28;20131;-72
2022/11/24 06:38:01;;;;;;;7.55;5.03;;;;;;;4.99;79.78;98869.00;5090182;28;20485;-72
2022/11/24 06:40:30;;;;;;;1.67;1.38;;;;;;;5.01;80.05;98884.19;5090585;28;20037;-71
2022/11/24 06:42:58;;;;;;;2.27;2.10;;;;;;;5.03;79.80;98882.53;5071957;28;20040;-71
2022/11/24 06:45:29;;;;;;;4.80;3.75;;;;;;;5.05;80.10;98874.13;5090443;28;20040;-72
2022/11/24 06:47:58;;;;;;;3.05;2.80;;;;;;;5.11;79.94;98886.78;5090079;28;20071;-72
2022/11/24 06:50:26;;;;;;;3.25;2.97;;;;;;;5.12;79.73;98888.50;5089858;28;20054;-71
2022/11/24 06:53:01;;;;;;;4.57;2.83;;;;;;;5.13;79.65;98892.75;5072589;28;20047;-72
2022/11/24 06:55:29;;;;;;;3.15;2.88;;;;;;;5.15;79.97;98895.25;5089696;28;20135;-71
2022/11/24 06:57:58;;;;;;;2.40;2.22;;;;;;;5.13;79.65;98897.78;5090165;28;20087;-72
2022/11/24 07:00:28;;;;;;;4.43;4.05;;;;;;;5.16;79.91;98905.38;5089846;28;20116;-71
2022/11/24 07:02:58;;;;;;;;;;;;;;;5.15;79.79;98911.28;5090206;28;20094;-71
2022/11/24 07:05:27;;;;;;;9.90;6.78;;;;;;;5.13;79.55;98912.13;5084730;28;19950;-72
2022/11/24 07:07:55;;;;;;;1.83;1.73;;;;;;;5.15;79.61;98916.34;5075973;28;20127;-71
2022/11/24 07:10:24;;;;;;;2.47;2.27;;;;;;;5.18;79.34;98925.66;5076219;28;20037;-72
2022/11/24 07:12:53;;;;;;;2.72;2.38;;;;;;;5.22;79.33;98927.34;5075195;28;20095;-72
2022/11/24 07:15:22;;;;;;;4.33;3.60;;;;;;;5.25;79.23;98937.50;5076721;28;20044;-73
2022/11/24 07:17:50;;;;;;;3.70;3.40;;;;;;;5.23;79.23;98940.00;5076300;28;20491;-72
2022/11/24 07:20:21;;;;;;;4.47;3.22;;;;;;;5.24;79.28;98936.66;5076348;28;20119;-72
2022/11/24 07:22:54;;;;;;;4.90;4.10;;;;;;;5.26;79.57;98941.72;5075967;28;20036;-71
2022/11/24 07:25:23;;;;;;;4.05;3.72;;;;;;;5.29;79.49;98935.00;5075936;28;20502;-71
2022/11/24 07:27:56;;;;;;;9.50;3.60;;;;;;;5.30;79.26;98949.34;5075780;28;20049;-70
2022/11/24 07:30:25;;;;;;;4.10;3.70;;;;;;;5.28;79.44;98943.41;5076090;28;20060;-71
2022/11/24 07:32:59;;;;;;;4.90;4.40;;;;;;;5.36;78.61;98951.94;5076105;28;20055;-71
2022/11/24 07:35:30;;;;;;;6.75;4.10;;;;;;;5.37;79.00;98956.13;5075573;28;20048;-71
2022/11/24 07:37:59;;;;;;;3.97;3.67;;;;;;;5.39;78.56;98951.13;5075603;28;20048;-72
2022/11/24 07:40:28;;;;;;;2.08;1.90;;;;;;;5.40;78.50;98953.63;5075583;28;20045;-71
2022/11/24 07:43:00;;;;;;;3.33;3.03;;;;;;;5.39;78.54;98954.50;5074602;28;20044;-71
2022/11/24 07:45:31;;;;;;;2.65;2.40;;;;;;;5.33;78.29;98956.97;5075398;28;20044;-71
2022/11/24 07:47:59;;;;;;;3.88;3.58;;;;;;;5.23;77.88;98955.19;5074314;28;20037;-71
2022/11/24 07:50:30;;;;;;;3.13;2.53;;;;;;;5.33;78.14;98962.03;5065625;28;20561;-71
2022/11/24 07:53:01;;;;;;;3.03;2.00;;;;;;;5.33;78.03;98956.97;5075357;28;20044;-71
2022/11/24 07:55:30;;;;;;;11.45;4.90;;;;;;;5.37;78.08;98967.97;5073484;28;20060;-71
2022/11/24 07:58:00;;;;;;;;;;;;;;;5.40;77.60;98967.97;5075517;28;20076;-71
2022/11/24 08:00:29;;;;;;;1.58;1.48;;;;;;;5.40;77.84;98973.88;5075225;28;19962;-72
2022/11/24 08:02:58;;;;;;;3.42;3.13;;;;;;;5.40;77.49;98968.81;5075118;28;20045;-71
2022/11/24 08:05:26;;;;;;;5.03;3.65;;;;;;;5.43;77.56;98978.13;5075028;28;20049;-71
2022/11/24 08:07:56;;;;;;;9.50;3.80;;;;;;;5.46;77.37;98978.16;5075044;28;20068;-72
2022/11/24 08:10:25;;;;;;;12.10;3.70;;;;;;;5.51;77.35;98975.66;5075344;28;20076;-71
2022/11/24 08:12:53;;;;;;;8.93;3.22;;;;;;;5.54;77.56;98975.69;5074989;28;20494;-71
2022/11/24 08:15:22;;;;;;;10.93;4.88;;;;;;;5.56;77.50;98974.00;5074793;28;20044;-71
2022/11/24 08:17:51;;;;;;;8.27;4.88;;;;;;;5.46;77.00;98977.31;5073883;28;20127;-70
2022/11/24 08:20:19;;;;;;;4.05;1.90;;;;;;;5.54;77.32;98990.88;5074813;28;20052;-71
2022/11/24 08:22:48;;;;;;;3.92;3.53;;;;;;;5.48;77.70;98978.16;5075056;28;20509;-71
2022/11/24 08:25:18;;;;;;;3.45;3.15;;;;;;;5.63;77.79;98994.31;5074064;28;20052;-70
2022/11/24 08:27:47;;;;;;;2.90;2.67;;;;;;;5.68;77.67;98994.34;5054658;28;20053;-71
2022/11/24 08:30:16;;;;;;;3.67;3.13;;;;;;;5.69;77.11;98996.88;5054634;28;20045;-70
2022/11/24 08:32:45;;;;;;;3.45;2.67;;;;;;;5.67;77.10;98992.66;5054584;28;20128;-71
2022/11/24 08:35:14;;;;;;;5.15;3.97;;;;;;;5.64;77.31;98985.06;5054395;28;20055;-71
2022/11/24 08:37:43;;;;;;;3.08;2.78;;;;;;;5.57;77.27;98970.63;5052077;28;20048;-71
2022/11/24 08:40:13;;;;;;;2.17;1.98;;;;;;;5.67;77.09;98983.38;5045244;28;20037;-71
2022/11/24 08:42:43;;;;;;;3.78;2.85;;;;;;;5.71;77.02;98986.78;5034494;28;20049;-72
2022/11/24 08:45:12;;;;;;;5.28;3.72;;;;;;;5.68;76.97;98986.75;5050105;28;20478;-71
2022/11/24 08:47:52;;;;;;;3.55;3.28;;;;;;;5.73;76.97;98991.03;5034318;28;20045;-72
2022/11/24 08:50:21;;;;;;;3.15;2.90;;;;;;;5.75;77.12;98985.97;5034346;28;20045;-72
2022/11/24 08:52:51;;;;;;;3.35;2.97;;;;;;;5.85;76.70;98991.16;5034294;28;20135;-72
2022/11/24 08:55:21;;;;;;;5.60;4.63;;;;;;;5.92;76.82;98997.94;5034050;28;20060;-70
2022/11/24 08:57:51;;;;;;;3.20;2.90;;;;;;;5.92;76.50;98994.56;5034492;28;20513;-71
2022/11/24 09:00:22;;;;;;;3.67;3.15;;;;;;;6.07;76.40;99009.84;5039565;28;20049;-70
2022/11/24 09:02:55;;;;;;;1.70;1.60;;;;;;;6.15;76.57;99013.28;5053640;28;20055;-74
2022/11/24 09:05:24;;;;;;;2.60;2.40;;;;;;;6.16;77.00;99004.84;5039300;28;20052;-71
2022/11/24 09:08:13;;;;;;;1.58;1.48;;;;;;;6.22;76.71;99004.88;5034385;28;20069;-71
2022/11/24 09:10:42;;;;;;;1.70;1.60;;;;;;;6.29;76.42;99006.59;5051034;28;20063;-70
2022/11/24 09:13:12;;;;;;;4.30;3.92;;;;;;;6.33;76.32;99007.47;5054223;28;20136;-70
2022/11/24 09:15:41;;;;;;;4.30;3.17;;;;;;;6.29;76.10;99001.53;5019498;28;20098;-71
2022/11/24 09:18:09;;;;;;;2.15;2.03;;;;;;;6.21;75.28;98987.13;5048777;28;20042;-71
2022/11/24 09:20:38;;;;;;;3.63;2.50;;;;;;;6.25;75.56;99012.50;5053025;28;20040;-71
2022/11/24 09:23:07;;;;;;;5.15;2.63;;;;;;;6.24;75.09;99013.31;5053146;28;20045;-71
2022/11/24 09:25:36;;;;;;;3.15;2.85;;;;;;;6.29;74.77;99014.19;5053620;28;20087;-71
2022/11/24 09:28:05;;;;;;;2.10;2.00;;;;;;;6.32;75.19;99011.69;5053386;28;20124;-71
2022/11/24 09:30:35;;;;;;;3.47;3.17;;;;;;;6.37;75.36;99019.31;5053617;28;20048;-70
2022/11/24 09:33:04;;;;;;;4.03;3.60;;;;;;;6.38;74.88;99018.47;5053561;28;20045;-71
2022/11/24 09:35:32;;;;;;;3.97;3.22;;;;;;;6.39;74.84;99023.53;5047132;28;20384;-71
2022/11/24 09:38:01;;;;;;;3.63;3.28;;;;;;;6.38;74.65;99026.91;5039685;28;20050;-71
2022/11/24 09:40:30;;;;;;;2.22;1.55;;;;;;;6.50;74.47;99032.03;5033570;28;20051;-71
2022/11/24 09:43:07;;;;;;;4.03;2.25;;;;;;;6.56;74.32;99027.00;5033586;28;20068;-72
2022/11/24 09:45:49;;;;;;;3.65;2.83;;;;;;;6.67;74.34;99022.00;5034096;28;20365;-71
2022/11/24 09:48:38;;;;;;;5.20;2.80;;;;;;;6.72;74.21;99020.31;5033418;28;20053;-71
2022/11/24 09:51:12;;;;;;;3.10;2.80;;;;;;;6.91;73.89;99028.84;5033524;28;20041;-72
2022/11/24 09:53:47;;;;;;;3.60;2.92;;;;;;;6.98;74.25;99015.34;5033183;28;20057;-72
2022/11/24 09:56:20;;;;;;;3.95;2.80;;;;;;;7.18;73.40;99024.69;5033502;28;20514;-71
2022/11/24 09:58:53;;;;;;;2.78;2.58;;;;;;;7.25;72.92;99025.53;5048677;28;20499;-71
2022/11/24 10:01:29;;;;;;;8.50;4.47;;;;;;;7.29;72.46;99028.06;5053269;28;20064;-71
2022/11/24 10:03:58;;;;;;;3.53;2.83;;;;;;;7.33;72.29;99028.94;5051911;28;20044;-71
2022/11/24 10:06:41;;;;;;;7.45;3.95;;;;;;;7.26;71.05;99022.16;5053269;28;20051;-71
2022/11/24 10:09:19;;;;;;;6.97;4.47;;;;;;;7.31;71.31;99030.63;5053159;28;20072;-71
2022/11/24 10:11:57;;;;;;;12.85;4.20;;;;;;;7.18;71.06;99019.59;5050007;28;20103;-71
2022/11/24 10:14:49;;;;;;;2.78;2.53;;;;;;;7.22;71.42;99030.63;5041883;28;20045;-71
2022/11/24 10:17:32;;;;;;;5.68;4.03;;;;;;;7.22;70.62;99021.28;5033058;28;20432;-70
2022/11/24 10:20:09;;;;;;;2.72;2.47;;;;;;;7.32;70.79;99037.38;5033581;28;20046;-70
2022/11/24 10:22:50;;;;;;;1.38;1.27;;;;;;;7.27;70.89;99023.88;5033419;28;20411;-70
2022/11/24 10:25:24;;;;;;;3.90;1.95;;;;;;;7.22;70.06;99026.38;5035970;28;20048;-71
2022/11/24 10:27:59;;;;;;;9.02;3.50;;;;;;;7.27;70.96;99026.41;5039025;28;20428;-71
2022/11/24 10:30:28;;;;;;;4.95;2.97;;;;;;;7.37;70.33;99025.56;5049985;28;20140;-70
2022/11/24 10:33:03;;;;;;;2.95;1.63;;;;;;;7.52;69.37;99030.66;5052894;28;20044;-70
2022/11/24 10:35:38;;;;;;;2.42;2.25;;;;;;;7.74;69.76;99027.28;5051730;28;20049;-70
2022/11/24 10:38:21;;;;;;;3.15;2.95;;;;;;;7.92;69.47;99017.09;5052981;28;20056;-69
2022/11/24 10:40:54;;;;;;;19.23;5.00;;;;;;;8.03;68.45;99025.56;5054450;28;20051;-70
2022/11/24 10:43:26;;;;;;;4.68;2.83;;;;;;;8.13;68.02;99020.47;5057000;28;20447;-70
2022/11/24 10:45:58;;;;;;;4.90;3.28;;;;;;;8.06;68.10;99012.03;5056954;28;20060;-70
2022/11/24 10:48:38;;;;;;;3.55;3.22;;;;;;;8.24;67.29;99028.91;5056479;28;20048;-70
2022/11/24 10:51:32;;;;;;;5.78;3.25;;;;;;;8.33;67.56;99034.00;5052581;28;20061;-71
2022/11/24 10:54:10;;;;;;;4.43;3.42;;;;;;;8.31;67.27;99026.41;5056268;28;20072;-70
2022/11/24 10:56:40;;;;;;;3.67;3.33;;;;;;;8.44;67.17;99029.75;5056353;28;20072;-70
2022/11/24 10:59:29;;;;;;;3.25;2.67;;;;;;;8.55;67.20;99030.56;5056451;28;20041;-70
2022/11/24 11:01:59;;;;;;;4.63;2.80;;;;;;;8.60;66.88;99033.94;5056338;28;20516;-70
2022/11/24 11:04:31;;;;;;;1.83;1.73;;;;;;;8.57;66.14;99033.94;5055429;28;20114;-70
2022/11/24 11:07:16;;;;;;;5.32;2.63;;;;;;;8.44;66.26;99037.38;5056239;28;20052;-70
2022/11/24 11:09:46;;;;;;;3.42;2.88;;;;;;;8.37;65.92;99040.78;5056011;28;20132;-70
2022/11/24 11:12:22;;;;;;;19.20;4.32;;;;;;;8.43;66.56;99046.69;5056117;28;20049;-71
2022/11/24 11:15:25;;;;;;;2.50;2.30;;;;;;;8.36;66.26;99050.13;5055927;28;20037;-71
2022/11/24 11:17:58;;;;;;;4.53;3.83;;;;;;;8.34;66.02;99043.34;5055960;28;20041;-71
2022/11/24 11:20:32;;;;;;;3.35;2.72;;;;;;;8.30;65.84;99049.28;5056063;28;20119;-71
2022/11/24 11:23:16;;;;;;;3.20;2.58;;;;;;;8.20;65.99;99042.50;5055991;28;20080;-71
2022/11/24 11:25:45;;;;;;;5.53;3.25;;;;;;;8.24;66.46;99034.84;5056252;28;20490;-71
2022/11/24 11:28:25;;;;;;;4.75;3.92;;;;;;;8.41;66.80;99034.84;5054589;28;20056;-71
2022/11/24 11:30:59;;;;;;;3.50;3.20;;;;;;;8.46;66.87;99043.31;5055021;28;20043;-71
2022/11/24 11:33:56;;;;;;;3.38;3.10;;;;;;;8.45;67.05;99031.44;5038876;28;20048;-71
2022/11/24 11:36:42;;;;;;;;;;;;;;;8.50;66.27;99038.22;5036371;28;20488;-71
2022/11/24 11:39:32;;;;;;;4.80;3.53;;;;;;;8.60;65.81;99039.88;5035754;28;19967;-70
2022/11/24 11:42:12;;;;;;;5.90;5.05;;;;;;;8.56;65.58;99028.03;5035752;28;20067;-70
2022/11/24 11:45:04;;;;;;;7.35;2.80;;;;;;;8.60;66.00;99033.94;5034575;28;20052;-71
2022/11/24 11:47:40;;;;;;;2.30;1.95;;;;;;;8.57;65.95;99039.88;5048738;28;20091;-70
2022/11/24 11:50:13;;;;;;;5.95;3.10;;;;;;;8.51;65.40;99039.06;5044649;28;20048;-70
2022/11/24 11:53:00;;;;;;;3.03;2.83;;;;;;;8.41;65.47;99037.38;5047153;28;20073;-71
2022/11/24 11:55:50;;;;;;;2.95;2.53;;;;;;;8.24;65.79;99034.00;5035166;28;20400;-70
2022/11/24 11:58:35;;;;;;;5.65;4.40;;;;;;;8.15;66.43;99034.88;5035276;28;20527;-70
2022/11/24 12:01:16;;;;;;;1.98;1.20;;;;;;;8.07;66.28;99037.41;5035622;28;20076;-70
2022/11/24 12:03:56;;;;;;;1.65;1.55;;;;;;;7.99;66.88;99049.28;5051085;28;20041;-70
2022/11/24 12:06:42;;;;;;;1.67;1.58;;;;;;;8.04;66.89;99047.59;5034095;28;20377;-70
2022/11/24 12:09:25;;;;;;;4.20;3.47;;;;;;;8.07;66.84;99047.59;5035536;28;20454;-70
2022/11/24 12:12:12;;;;;;;4.50;2.60;;;;;;;7.94;67.32;99020.47;5035139;28;20439;-70
2022/11/24 12:14:52;;;;;;;3.05;2.80;;;;;;;8.10;67.53;99041.66;5038391;28;20052;-71
2022/11/24 12:17:30;;;;;;;3.22;3.03;;;;;;;8.06;67.36;99037.44;5034886;28;20530;-70
2022/11/24 12:20:19;;;;;;;5.30;4.80;;;;;;;8.00;68.10;99045.91;5035152;28;20052;-71
2022/11/24 12:23:01;;;;;;;4.05;3.03;;;;;;;7.96;67.29;99046.75;5034821;28;20052;-70
2022/11/24 12:25:37;;;;;;;2.90;1.80;;;;;;;7.90;68.11;99043.34;5034481;28;20045;-71
2022/11/24 12:28:20;;;;;;;3.60;2.33;;;;;;;7.93;68.26;99039.13;5034725;28;20052;-71
2022/11/24 12:31:02;;;;;;;2.95;2.65;;;;;;;7.80;68.05;99034.88;5034595;28;20046;-70
2022/11/24 12:33:52;;;;;;;14.60;2.83;;;;;;;7.74;68.94;99051.84;5035079;28;20049;-70
2022/11/24 12:36:44;;;;;;;4.45;3.08;;;;;;;7.54;68.41;99039.13;5034563;28;20108;-69
2022/11/24 12:39:24;;;;;;;2.60;2.40;;;;;;;7.57;68.53;99056.91;5034893;28;20392;-71
2022/11/24 12:42:08;;;;;;;1.85;1.65;;;;;;;7.56;69.09;99062.81;5034514;28;20507;-71
2022/11/24 12:44:52;;;;;;;7.88;4.13;;;;;;;7.49;69.33;99050.09;5034487;28;20041;-71
2022/11/24 12:47:29;;;;;;;5.05;2.97;;;;;;;7.54;68.73;99064.50;5034476;28;20041;-71
2022/11/24 12:50:08;;;;;;;3.15;2.70;;;;;;;7.57;69.81;99069.59;5033453;28;20072;-71
2022/11/24 12:52:41;;;;;;;2.53;2.33;;;;;;;7.53;69.18;99060.28;5034707;28;20061;-71
2022/11/24 12:55:17;;;;;;;2.03;1.92;;;;;;;7.54;69.48;99074.66;5033967;28;20073;-70
2022/11/24 12:57:55;;;;;;;1.75;1.65;;;;;;;7.50;69.16;99072.97;5034476;28;20045;-71
2022/11/24 13:00:33;;;;;;;4.07;2.58;;;;;;;7.50;69.29;99080.59;5036106;28;20045;-71
2022/11/24 13:03:17;;;;;;;2.60;2.05;;;;;;;7.44;69.44;99063.66;5042282;28;20041;-71
2022/11/24 13:05:52;;;;;;;3.08;2.88;;;;;;;7.57;70.13;99079.75;5038917;28;20489;-71
2022/11/24 13:08:22;;;;;;;4.20;3.05;;;;;;;7.48;70.14;99074.66;5054127;28;20045;-71
2022/11/24 13:10:51;;;;;;;1.50;1.40;;;;;;;7.54;70.69;99089.03;5053859;28;20049;-71
2022/11/24 13:13:50;;;;;;;1.88;1.77;;;;;;;7.51;70.69;99094.97;5053907;28;20056;-70
2022/11/24 13:16:20;;;;;;;2.15;1.98;;;;;;;7.46;71.36;99096.66;5053631;28;20040;-70
2022/11/24 13:19:15;;;;;;;1.45;1.35;;;;;;;7.49;72.33;99105.94;5048497;28;20045;-71
2022/11/24 13:22:03;;;;;;;4.50;2.50;;;;;;;7.45;72.34;99112.72;5037149;28;20523;-71
2022/11/24 13:24:34;;;;;;;3.35;1.02;;;;;;;7.38;72.75;99114.41;5032045;28;20043;-70
2022/11/24 13:27:26;;;;;;;5.80;2.17;;;;;;;7.42;72.72;99120.34;5049764;28;20041;-70
2022/11/24 13:29:56;;;;;;;13.27;2.47;;;;;;;7.39;72.29;99120.31;5053568;28;20077;-69
2022/11/24 13:32:45;;;;;;;6.20;3.38;;;;;;;7.38;72.36;99119.50;5053892;28;20491;-69
2022/11/24 13:35:15;;;;;;;2.58;1.58;;;;;;;7.39;73.14;99115.25;5053648;28;20521;-70
2022/11/24 13:37:52;;;;;;;2.83;2.63;;;;;;;7.36;72.74;99107.63;5050494;28;20060;-71
2022/11/24 13:40:41;;;;;;;3.08;1.73;;;;;;;7.37;72.82;99115.25;5042255;28;20060;-71
2022/11/24 13:43:30;;;;;;;1.95;1.75;;;;;;;7.34;72.94;99106.78;5033541;28;20092;-71
2022/11/24 13:46:02;;;;;;;6.50;2.35;;;;;;;7.32;73.89;99113.53;5033500;28;20041;-71
2022/11/24 13:48:52;;;;;;;1.42;1.33;;;;;;;7.32;73.40;99109.31;5033549;28;20103;-71
2022/11/24 13:51:24;;;;;;;4.53;2.47;;;;;;;7.33;73.97;99115.22;5033443;28;20503;-71
2022/11/24 13:53:56;;;;;;;4.30;2.78;;;;;;;7.38;73.68;99126.25;5045292;28;20076;-71
2022/11/24 13:56:30;;;;;;;3.15;2.90;;;;;;;7.42;73.84;99125.41;5053217;28;20059;-72
2022/11/24 13:59:03;;;;;;;3.92;1.23;;;;;;;7.42;74.40;99120.34;5053242;28;20049;-71
2022/11/24 14:01:39;;;;;;;2.25;1.77;;;;;;;7.42;74.15;99133.03;5053620;28;20052;-71
2022/11/24 14:04:20;;;;;;;5.63;2.15;;;;;;;7.37;73.60;99133.00;5053476;28;20107;-71
2022/11/24 14:07:05;;;;;;;5.68;4.57;;;;;;;7.34;74.30;99127.09;5053502;28;20037;-71
2022/11/24 14:09:42;;;;;;;2.40;2.20;;;;;;;7.34;74.39;99137.25;5053169;28;20045;-71
2022/11/24 14:12:16;;;;;;;2.42;1.75;;;;;;;7.22;74.58;99138.03;5053576;28;20120;-70
2022/11/24 14:14:47;;;;;;;1.30;1.20;;;;;;;7.24;74.07;99150.75;5053245;28;20045;-71
2022/11/24 14:17:21;;;;;;;1.85;1.75;;;;;;;7.28;73.64;99153.28;5056980;28;20395;-71
2022/11/24 14:19:52;;;;;;;5.65;4.60;;;;;;;7.32;74.45;99149.06;5057228;28;20045;-71
2022/11/24 14:22:25;;;;;;;1.65;1.55;;;;;;;7.33;74.00;99150.78;5057701;28;20418;-70
2022/11/24 14:24:57;;;;;;;1.73;1.63;;;;;;;7.36;73.82;99150.78;5057340;28;20499;-71
2022/11/24 14:27:31;;;;;;;0.73;0.73;;;;;;;7.27;74.04;99135.53;5057969;28;20478;-71
2022/11/24 14:30:02;;;;;;;2.55;1.67;;;;;;;7.42;73.67;99150.78;5056978;28;20491;-70
2022/11/24 14:32:32;;;;;;;2.60;2.40;;;;;;;7.42;73.40;99155.88;5050095;28;20048;-71
2022/11/24 14:35:02;;;;;;;1.88;1.48;;;;;;;7.41;73.53;99157.56;5056210;28;20049;-71
2022/11/24 14:37:30;;;;;;;1.05;1.02;;;;;;;7.52;73.14;99164.38;5056100;28;20048;-71
2022/11/24 14:39:59;;;;;;;6.50;3.25;;;;;;;7.53;72.93;99168.63;5056646;28;20045;-70
2022/11/24 14:42:28;;;;;;;2.22;1.90;;;;;;;7.51;72.76;99160.97;5055648;28;20509;-70
2022/11/24 14:44:59;;;;;;;5.75;2.78;;;;;;;7.55;73.21;99162.69;5056975;28;20033;-71
2022/11/24 14:47:31;;;;;;;1.67;1.55;;;;;;;7.40;72.11;99147.41;5056871;28;20064;-71
2022/11/24 14:50:11;;;;;;;1.42;1.33;;;;;;;7.50;73.10;99178.75;5050245;28;20037;-71
2022/11/24 14:52:52;;;;;;;1.63;1.25;;;;;;;7.44;72.08;99174.50;5036627;28;20049;-71
2022/11/24 14:55:27;;;;;;;4.47;2.88;;;;;;;7.44;72.67;99179.56;5036341;28;20061;-72
2022/11/24 14:57:56;;;;;;;1.45;1.23;;;;;;;7.39;72.33;99181.22;5036456;28;20057;-71
2022/11/24 15:00:31;;;;;;;1.30;1.20;;;;;;;7.37;72.50;99182.94;5036709;28;20519;-71
2022/11/24 15:03:19;;;;;;;2.47;2.28;;;;;;;7.32;72.23;99184.59;5036449;28;20302;-71
2022/11/24 15:05:55;;;;;;;2.22;2.03;;;;;;;7.27;72.58;99179.50;5036644;28;20434;-71
2022/11/24 15:08:26;;;;;;;7.50;2.47;;;;;;;7.24;72.71;99176.13;5036520;28;20452;-70
2022/11/24 15:11:00;;;;;;;4.90;3.10;;;;;;;7.21;72.48;99176.09;5036358;28;20193;-71
2022/11/24 15:13:35;;;;;;;3.15;2.45;;;;;;;7.23;72.95;99189.63;5036218;28;20056;-71
2022/11/24 15:16:08;;;;;;;4.22;2.75;;;;;;;7.10;72.44;99168.41;5036280;28;20045;-70
2022/11/24 15:18:42;;;;;;;8.27;3.35;;;;;;;7.18;72.70;99191.31;5036296;28;20034;-71
2022/11/24 15:21:13;;;;;;;3.22;2.63;;;;;;;7.03;72.83;99168.41;5036123;28;20111;-70
2022/11/24 15:24:05;;;;;;;5.57;4.10;;;;;;;7.02;72.89;99174.31;5036452;28;20053;-71
2022/11/24 15:26:33;;;;;;;2.38;2.17;;;;;;;7.12;73.54;99192.16;5035480;28;20053;-70
2022/11/24 15:29:10;;;;;;;3.70;2.80;;;;;;;7.07;73.33;99195.47;5035952;28;20065;-70
2022/11/24 15:31:39;;;;;;;3.80;2.80;;;;;;;7.05;73.12;99205.63;5036127;28;20483;-71
2022/11/24 15:34:12;;;;;;;0.82;0.82;;;;;;;7.04;73.38;99203.06;5035868;28;20133;-71
2022/11/24 15:36:42;;;;;;;2.25;1.95;;;;;;;7.01;73.77;99208.13;5035824;28;20048;-71
2022/11/24 15:39:11;;;;;;;2.50;2.20;;;;;;;6.92;73.70;99203.84;5035947;28;20377;-71
2022/11/24 15:41:41;;;;;;;4.17;1.93;;;;;;;6.93;72.98;99215.72;5035755;28;20037;-71
2022/11/24 15:44:10;;;;;;;3.03;2.70;;;;;;;6.89;73.05;99216.50;5035578;28;20045;-71
2022/11/24 15:46:39;;;;;;;1.92;1.73;;;;;;;6.88;73.60;99221.59;5035639;28;20133;-70
2022/11/24 15:49:08;;;;;;;2.83;1.75;;;;;;;6.86;73.21;99223.25;5036013;28;20396;-70
2022/11/24 15:51:40;;;;;;;2.05;1.90;;;;;;;6.87;73.23;99230.88;5035526;28;20041;-71
2022/11/24 15:54:15;;;;;;;7.45;2.75;;;;;;;6.80;74.49;99234.22;5035348;28;20045;-70
2022/11/24 15:56:43;;;;;;;2.83;2.35;;;;;;;6.80;73.89;99238.44;5035482;28;20061;-71
2022/11/24 15:59:15;;;;;;;1.10;1.03;;;;;;;6.62;74.18;99222.22;5035374;28;20069;-70
2022/11/24 16:01:49;;;;;;;2.15;1.95;;;;;;;6.59;74.74;99219.69;5035370;28;20472;-70
2022/11/24 16:04:18;;;;;;;1.38;1.27;;;;;;;6.61;75.28;99227.31;5035326;28;20088;-70
2022/11/24 16:06:47;;;;;;;5.28;3.70;;;;;;;6.64;75.40;99229.88;5035605;28;20487;-71
2022/11/24 16:09:17;;;;;;;2.72;2.08;;;;;;;6.63;75.45;99236.63;5035264;28;20041;-70
2022/11/24 16:11:46;;;;;;;3.28;2.90;;;;;;;6.57;75.16;99231.53;5050937;28;20045;-71
2022/11/24 16:14:14;;;;;;;1.38;1.27;;;;;;;6.68;75.85;99240.03;5035111;28;20046;-71
2022/11/24 16:16:44;;;;;;;2.10;1.95;;;;;;;6.69;75.66;99251.03;5035113;28;20499;-70
2022/11/24 16:19:14;;;;;;;2.42;2.03;;;;;;;6.68;75.27;99255.25;5035447;28;20049;-70
2022/11/24 16:21:43;;;;;;;1.27;1.17;;;;;;;6.69;76.29;99244.25;5035349;28;20049;-70
2022/11/24 16:24:12;;;;;;;5.28;2.15;;;;;;;6.69;76.23;99246.78;5035416;28;20376;-70
2022/11/24 16:26:42;;;;;;;3.50;3.10;;;;;;;6.71;76.12;99245.16;5034939;28;20045;-71
2022/11/24 16:29:11;;;;;;;0.60;0.60;;;;;;;6.72;75.61;99246.84;5035113;28;20554;-70
2022/11/24 16:31:42;;;;;;;15.00;5.50;;;;;;;6.71;76.28;99250.22;5035045;28;20041;-70
2022/11/24 16:34:11;;;;;;;2.75;2.55;;;;;;;6.73;76.27;99247.69;5034810;28;20051;-71
2022/11/24 16:36:39;;;;;;;2.85;2.65;;;;;;;6.63;75.69;99233.22;5035111;28;20515;-70
2022/11/24 16:39:08;;;;;;;6.68;3.67;;;;;;;6.65;75.84;99244.22;5034070;28;20041;-71
2022/11/24 16:41:37;;;;;;;3.90;2.97;;;;;;;6.67;75.86;99245.13;5034565;28;20048;-71
2022/11/24 16:44:07;;;;;;;5.18;3.22;;;;;;;6.67;75.62;99255.25;5034604;28;20121;-70
2022/11/24 16:46:35;;;;;;;4.00;3.05;;;;;;;6.68;76.04;99259.47;5034801;28;20084;-71
2022/11/24 16:49:04;;;;;;;7.78;2.70;;;;;;;6.61;75.89;99250.13;5034440;28;20041;-71
2022/11/24 16:51:33;;;;;;;4.97;3.78;;;;;;;6.64;76.03;99257.75;5034724;28;20037;-71
2022/11/24 16:54:03;;;;;;;20.55;4.13;;;;;;;6.59;76.07;99260.25;5034337;28;20068;-70
2022/11/24 16:56:32;;;;;;;1.17;0.93;;;;;;;6.54;75.75;99261.91;5034298;28;20045;-71
2022/11/24 16:59:01;;;;;;;3.53;2.07;;;;;;;6.51;76.53;99266.09;5034177;28;20065;-71
2022/11/24 17:01:31;;;;;;;4.07;3.60;;;;;;;6.44;76.11;99259.28;5034749;28;20757;-70
2022/11/24 17:04:00;;;;;;;6.78;4.40;;;;;;;6.45;76.22;99271.13;5034471;28;20491;-71
2022/11/24 17:06:29;;;;;;;12.60;6.07;;;;;;;6.23;76.14;99249.78;5034091;28;20035;-70
2022/11/24 17:08:58;;;;;;;3.03;2.33;;;;;;;6.25;76.32;99278.53;5034692;28;20045;-70
2022/11/24 17:11:28;;;;;;;3.87;3.57;;;;;;;6.14;76.86;99269.97;5034386;28;20123;-70
2022/11/24 17:13:57;;;;;;;3.58;2.88;;;;;;;6.16;77.48;99280.13;5034121;28;20053;-71
2022/11/24 17:16:28;;;;;;;20.17;4.28;;;;;;;6.18;76.70;99281.84;5049697;28;20045;-70
2022/11/24 17:18:58;;;;;;;5.78;2.22;;;;;;;6.11;77.12;99280.06;5034313;28;20042;-71
2022/11/24 17:21:27;;;;;;;2.13;1.95;;;;;;;6.13;77.52;99287.69;5034127;28;20434;-71
2022/11/24 17:23:58;;;;;;;3.83;3.28;;;;;;;6.11;77.39;99295.28;5033844;28;20073;-70
2022/11/24 17:26:27;;;;;;;4.03;3.72;;;;;;;6.00;77.25;99287.56;5034196;28;20045;-71
2022/11/24 17:28:56;;;;;;;2.90;1.98;;;;;;;5.98;77.71;99283.28;5032592;28;20077;-71
2022/11/24 17:31:27;;;;;;;5.10;4.50;;;;;;;6.06;77.89;99307.03;5034093;28;20188;-71
2022/11/24 17:33:59;;;;;;;3.70;3.40;;;;;;;6.07;77.88;99313.78;5032543;28;20077;-71
2022/11/24 17:36:29;;;;;;;5.05;3.00;;;;;;;6.09;78.14;99312.16;5034001;28;20415;-71
2022/11/24 17:38:59;;;;;;;4.60;4.15;;;;;;;6.03;78.46;99302.78;5033613;28;20110;-71
2022/11/24 17:41:28;;;;;;;2.20;1.92;;;;;;;6.15;78.56;99326.53;5033841;28;20045;-71
2022/11/24 17:43:57;;;;;;;2.97;2.58;;;;;;;6.21;78.77;99317.34;5033563;28;20049;-71
2022/11/24 17:46:27;;;;;;;4.50;4.10;;;;;;;6.19;78.50;99313.09;5015829;28;20050;-71
2022/11/24 17:48:58;;;;;;;4.03;2.55;;;;;;;6.27;78.60;99317.41;5033587;28;20530;-71
2022/11/24 17:51:27;;;;;;;2.78;2.55;;;;;;;6.28;78.41;99313.19;5033449;28;20077;-71
2022/11/24 17:53:56;;;;;;;2.67;2.47;;;;;;;6.28;78.73;99308.97;5033141;28;20115;-71
2022/11/24 17:56:27;;;;;;;6.78;4.55;;;;;;;6.27;78.88;99297.13;4994494;28;20081;-71
2022/11/24 17:58:58;;;;;;;3.38;2.40;;;;;;;6.36;78.64;99312.41;4994375;28;20046;-71
2022/11/24 18:01:30;;;;;;;3.50;3.10;;;;;;;6.45;78.66;99326.88;4994052;28;20042;-71
2022/11/24 18:04:00;;;;;;;5.60;4.90;;;;;;;6.33;78.03;99297.19;4994038;28;20172;-71
2022/11/24 18:06:29;;;;;;;1.65;1.52;;;;;;;6.49;78.22;99329.47;4994098;28;20050;-71